Time;durP1;ratioP1;P1;durP2;ratioP2;P2;SDS_P1;SDS_P2;PMS_P1;PMS_P2;Temp;Humidity;BMP_temperature;BMP_pressure;BME280_temperature;BME280_humidity;BME280_pressure;Samples;Min_cycle;Max_cycle;Signal;HPM_P1;HPM_P2
2023/12/16 00:01:11;;;;;;;26.15;11.77;;;;;;;;;;5039154;28;20036;-73
2023/12/16 00:03:36;;;;;;;24.50;12.13;;;;;;;;;;5038561;28;20497;-73
2023/12/16 00:06:01;;;;;;;23.30;12.52;;;;;;;;;;5042298;28;20033;-74
2023/12/16 00:08:26;;;;;;;27.17;13.20;;;;;;;;;;5038448;28;20087;-74
2023/12/16 00:10:52;;;;;;;24.42;11.77;;;;;;;;;;5042202;28;20495;-74
2023/12/16 00:13:17;;;;;;;25.42;12.55;;;;;;;;;;5038270;28;20060;-74
2023/12/16 00:15:42;;;;;;;22.80;12.02;;;;;;;;;;5035550;28;20053;-73
2023/12/16 00:18:07;;;;;;;23.05;12.50;;;;;;;;;;5041586;28;20029;-74
2023/12/16 00:20:32;;;;;;;19.98;10.90;;;;;;;;;;5038642;28;20025;-74
2023/12/16 00:22:58;;;;;;;23.73;11.73;;;;;;;;;;5041696;28;20060;-74
2023/12/16 00:25:23;;;;;;;24.75;12.63;;;;;;;;;;5032870;28;20034;-74
2023/12/16 00:27:48;;;;;;;19.80;10.80;;;;;;;;;;5041911;28;20037;-74
2023/12/16 00:30:13;;;;;;;23.15;11.43;;;;;;;;;;5040492;28;20689;-74
2023/12/16 00:32:39;;;;;;;26.77;11.75;;;;;;;;;;5037611;28;20029;-74
2023/12/16 00:35:05;;;;;;;22.27;11.60;;;;;;;;;;5033687;28;20041;-73
2023/12/16 00:37:30;;;;;;;24.25;11.88;;;;;;;;;;5037284;28;20533;-74
2023/12/16 00:39:55;;;;;;;25.17;11.63;;;;;;;;;;5036693;28;20474;-74
2023/12/16 00:42:21;;;;;;;22.85;11.38;;;;;;;;;;5040922;28;20163;-74
2023/12/16 00:44:46;;;;;;;26.67;13.50;;;;;;;;;;5034452;28;20026;-74
2023/12/16 00:47:11;;;;;;;26.67;12.65;;;;;;;;;;5035691;28;20029;-74
2023/12/16 00:49:36;;;;;;;25.35;13.55;;;;;;;;;;5038026;28;20037;-73
2023/12/16 00:52:03;;;;;;;24.65;12.65;;;;;;;;;;5044164;28;20036;-74
2023/12/16 00:54:28;;;;;;;26.60;12.55;;;;;;;;;;5038765;28;20043;-74
2023/12/16 00:56:53;;;;;;;24.30;12.13;;;;;;;;;;5041876;28;20037;-74
2023/12/16 00:59:18;;;;;;;24.67;12.15;;;;;;;;;;5037708;28;20026;-73
2023/12/16 01:01:44;;;;;;;25.02;12.93;;;;;;;;;;5036282;28;20057;-74
2023/12/16 01:04:09;;;;;;;25.90;11.85;;;;;;;;;;5037122;28;20618;-74
2023/12/16 01:06:34;;;;;;;25.38;12.80;;;;;;;;;;5033370;28;20057;-74
2023/12/16 01:08:59;;;;;;;27.08;12.75;;;;;;;;;;5038949;28;20507;-74
2023/12/16 01:11:25;;;;;;;26.15;12.52;;;;;;;;;;5039797;28;20087;-74
2023/12/16 01:13:50;;;;;;;22.77;11.63;;;;;;;;;;5031223;28;20041;-74
2023/12/16 01:16:15;;;;;;;32.55;13.23;;;;;;;;;;5037523;28;20136;-74
2023/12/16 01:18:40;;;;;;;26.20;12.30;;;;;;;;;;5037064;28;20026;-74
2023/12/16 01:21:06;;;;;;;25.02;12.23;;;;;;;;;;5040320;28;20417;-74
2023/12/16 01:23:32;;;;;;;24.55;10.75;;;;;;;;;;5033953;28;20049;-74
2023/12/16 01:25:57;;;;;;;23.05;11.73;;;;;;;;;;5037395;28;20482;-74
2023/12/16 01:28:22;;;;;;;25.45;13.05;;;;;;;;;;5035126;28;20029;-74
2023/12/16 01:30:47;;;;;;;25.98;12.15;;;;;;;;;;5036362;28;20041;-74
2023/12/16 01:33:13;;;;;;;28.67;13.18;;;;;;;;;;5039124;28;20044;-74
2023/12/16 01:35:38;;;;;;;25.05;12.95;;;;;;;;;;5039679;28;20541;-74
2023/12/16 01:38:03;;;;;;;27.08;12.32;;;;;;;;;;5041667;28;20037;-74
2023/12/16 01:40:28;;;;;;;25.42;12.75;;;;;;;;;;5035939;28;20043;-74
2023/12/16 01:42:55;;;;;;;25.38;11.43;;;;;;;;;;5041594;28;20212;-74
2023/12/16 01:45:20;;;;;;;23.30;11.93;;;;;;;;;;5038121;28;20095;-74
2023/12/16 01:47:46;;;;;;;22.10;10.40;;;;;;;;;;5037128;28;20041;-74
2023/12/16 01:50:12;;;;;;;22.90;12.10;;;;;;;;;;5041555;28;20044;-74
2023/12/16 01:52:38;;;;;;;24.77;13.02;;;;;;;;;;5040953;28;20038;-74
2023/12/16 01:55:03;;;;;;;29.35;13.10;;;;;;;;;;5031461;28;20379;-74
2023/12/16 01:57:29;;;;;;;28.27;12.40;;;;;;;;;;5034857;28;20079;-74
2023/12/16 01:59:54;;;;;;;27.02;12.68;;;;;;;;;;5036508;28;20535;-74
2023/12/16 02:02:20;;;;;;;21.60;11.57;;;;;;;;;;5040301;28;20029;-74
2023/12/16 02:04:45;;;;;;;26.75;12.45;;;;;;;;;;5038727;28;20041;-74
2023/12/16 02:07:11;;;;;;;27.35;12.23;;;;;;;;;;5039779;28;20091;-74
2023/12/16 02:09:36;;;;;;;26.85;12.48;;;;;;;;;;5034397;28;20178;-74
2023/12/16 02:12:01;;;;;;;25.52;13.60;;;;;;;;;;5032973;28;20036;-74
2023/12/16 02:14:26;;;;;;;21.75;11.38;;;;;;;;;;5036447;28;20036;-74
2023/12/16 02:16:51;;;;;;;26.25;12.15;;;;;;;;;;5037556;28;20025;-74
2023/12/16 02:19:26;;;;;;;23.77;12.82;;;;;;;;;;5042659;28;20158;-74
2023/12/16 02:21:52;;;;;;;24.02;11.73;;;;;;;;;;5033676;28;20039;-75
2023/12/16 02:24:17;;;;;;;25.23;12.50;;;;;;;;;;5033717;28;20101;-74
2023/12/16 02:26:42;;;;;;;25.75;12.68;;;;;;;;;;5034964;28;20022;-75
2023/12/16 02:29:07;;;;;;;24.92;11.98;;;;;;;;;;5035178;28;20037;-74
2023/12/16 02:31:33;;;;;;;26.40;13.40;;;;;;;;;;5039576;28;20029;-74
2023/12/16 02:33:58;;;;;;;27.35;13.07;;;;;;;;;;5040677;28;20594;-75
2023/12/16 02:36:24;;;;;;;23.60;10.98;;;;;;;;;;5035210;28;20113;-75
2023/12/16 02:38:49;;;;;;;25.65;13.25;;;;;;;;;;5034047;28;20037;-75
2023/12/16 02:41:14;;;;;;;21.55;11.30;;;;;;;;;;5039143;28;20476;-75
2023/12/16 02:43:40;;;;;;;27.65;12.20;;;;;;;;;;5038093;28;20083;-75
2023/12/16 02:46:06;;;;;;;20.58;11.13;;;;;;;;;;5042050;28;20028;-75
2023/12/16 02:48:31;;;;;;;25.15;11.80;;;;;;;;;;5038876;28;20448;-75
2023/12/16 02:50:56;;;;;;;21.17;11.45;;;;;;;;;;5034882;28;20112;-75
2023/12/16 02:53:21;;;;;;;26.38;11.93;;;;;;;;;;5036331;28;20525;-76
2023/12/16 02:55:46;;;;;;;25.30;10.82;;;;;;;;;;5035649;28;20033;-75
2023/12/16 02:58:11;;;;;;;22.88;11.43;;;;;;;;;;5038159;28;20110;-75
2023/12/16 03:00:37;;;;;;;25.50;11.50;;;;;;;;;;5041346;28;20033;-75
2023/12/16 03:03:02;;;;;;;25.77;12.30;;;;;;;;;;5039547;28;20460;-75
2023/12/16 03:05:27;;;;;;;23.75;11.25;;;;;;;;;;5038892;28;20036;-75
2023/12/16 03:07:52;;;;;;;20.55;10.90;;;;;;;;;;5041424;28;20021;-74
2023/12/16 03:10:18;;;;;;;20.42;11.13;;;;;;;;;;5039948;28;20060;-75
2023/12/16 03:12:44;;;;;;;18.73;9.70;;;;;;;;;;5041559;28;20456;-75
2023/12/16 03:15:09;;;;;;;21.20;10.18;;;;;;;;;;5040720;28;20028;-75
2023/12/16 03:17:35;;;;;;;20.23;9.80;;;;;;;;;;5038832;28;20096;-75
2023/12/16 03:20:00;;;;;;;20.58;9.80;;;;;;;;;;5041978;28;20087;-75
2023/12/16 03:22:25;;;;;;;24.63;10.63;;;;;;;;;;5040144;28;20470;-75
2023/12/16 03:24:50;;;;;;;21.73;10.65;;;;;;;;;;5032503;28;20063;-75
2023/12/16 03:27:15;;;;;;;20.15;10.25;;;;;;;;;;5041130;28;20488;-76
2023/12/16 03:29:41;;;;;;;22.40;10.52;;;;;;;;;;5039000;28;20064;-75
2023/12/16 03:32:06;;;;;;;21.42;10.43;;;;;;;;;;5029515;28;20041;-75
2023/12/16 03:34:32;;;;;;;16.65;8.70;;;;;;;;;;5039673;28;20034;-75
2023/12/16 03:36:57;;;;;;;19.80;9.00;;;;;;;;;;5041715;28;20073;-75
2023/12/16 03:39:23;;;;;;;15.77;8.70;;;;;;;;;;5036426;28;20080;-75
2023/12/16 03:41:48;;;;;;;19.58;9.02;;;;;;;;;;5036348;28;20036;-75
2023/12/16 03:44:13;;;;;;;21.05;9.25;;;;;;;;;;5038841;28;20025;-75
2023/12/16 03:46:38;;;;;;;20.35;9.02;;;;;;;;;;5038521;28;20202;-75
2023/12/16 03:49:03;;;;;;;17.65;9.13;;;;;;;;;;5042206;28;20025;-75
2023/12/16 03:51:29;;;;;;;18.85;9.30;;;;;;;;;;5039302;28;20497;-75
2023/12/16 03:53:54;;;;;;;19.70;9.18;;;;;;;;;;5040916;28;20460;-75
2023/12/16 03:56:19;;;;;;;19.40;9.60;;;;;;;;;;5039014;28;20537;-75
2023/12/16 03:58:44;;;;;;;19.27;8.60;;;;;;;;;;5038207;28;20029;-75
2023/12/16 04:01:13;;;;;;;19.23;9.02;;;;;;;;;;5035626;28;20034;-75
2023/12/16 04:03:38;;;;;;;18.45;8.40;;;;;;;;;;5037504;28;20418;-75
2023/12/16 04:06:04;;;;;;;16.88;8.15;;;;;;;;;;5042371;28;20044;-75
2023/12/16 04:08:29;;;;;;;16.85;7.95;;;;;;;;;;5035573;28;20033;-75
2023/12/16 04:10:54;;;;;;;14.25;7.00;;;;;;;;;;5036953;28;20025;-75
2023/12/16 04:13:19;;;;;;;16.13;7.55;;;;;;;;;;5042908;28;20033;-75
2023/12/16 04:15:44;;;;;;;13.65;6.53;;;;;;;;;;5029646;28;20037;-75
2023/12/16 04:18:09;;;;;;;16.95;7.82;;;;;;;;;;5029196;28;20040;-75
2023/12/16 04:20:35;;;;;;;15.77;6.75;;;;;;;;;;5034527;28;20113;-75
2023/12/16 04:23:00;;;;;;;17.33;6.78;;;;;;;;;;5044657;28;20033;-75
2023/12/16 04:25:25;;;;;;;13.68;7.47;;;;;;;;;;5038092;28;20026;-75
2023/12/16 04:27:50;;;;;;;15.15;7.00;;;;;;;;;;5034531;28;20619;-75
2023/12/16 04:30:15;;;;;;;18.60;7.80;;;;;;;;;;5034508;28;20056;-75
2023/12/16 04:32:41;;;;;;;20.38;7.65;;;;;;;;;;5038327;28;20068;-75
2023/12/16 04:35:06;;;;;;;18.42;7.78;;;;;;;;;;5040180;28;20044;-75
2023/12/16 04:37:31;;;;;;;16.58;7.43;;;;;;;;;;5041440;28;20056;-75
2023/12/16 04:39:56;;;;;;;12.98;7.47;;;;;;;;;;5041350;28;20034;-75
2023/12/16 04:42:22;;;;;;;16.80;7.97;;;;;;;;;;5038932;28;20113;-75
2023/12/16 04:44:47;;;;;;;15.43;8.00;;;;;;;;;;5036852;28;20520;-75
2023/12/16 04:47:12;;;;;;;19.52;6.82;;;;;;;;;;5038401;28;20067;-75
2023/12/16 04:49:39;;;;;;;15.10;7.75;;;;;;;;;;5038230;28;20091;-75
2023/12/16 04:52:04;;;;;;;16.77;7.32;;;;;;;;;;5041631;28;20520;-75
2023/12/16 04:54:30;;;;;;;18.33;7.57;;;;;;;;;;5036901;28;20030;-75
2023/12/16 04:56:55;;;;;;;15.52;7.55;;;;;;;;;;5037577;28;20037;-75
2023/12/16 04:59:20;;;;;;;17.98;7.70;;;;;;;;;;5043809;28;20037;-76
2023/12/16 05:01:45;;;;;;;18.30;6.78;;;;;;;;;;5037357;28;20079;-76
2023/12/16 05:04:10;;;;;;;11.80;6.47;;;;;;;;;;5039255;28;20402;-76
2023/12/16 05:06:36;;;;;;;13.98;6.32;;;;;;;;;;5040073;28;20091;-76
2023/12/16 05:09:01;;;;;;;18.02;7.95;;;;;;;;;;5037805;28;20037;-75
2023/12/16 05:11:26;;;;;;;14.38;7.10;;;;;;;;;;5037348;28;20113;-76
2023/12/16 05:13:51;;;;;;;13.70;6.20;;;;;;;;;;5036089;28;20025;-75
2023/12/16 05:16:17;;;;;;;21.63;7.28;;;;;;;;;;5040094;28;20080;-76
2023/12/16 05:18:42;;;;;;;15.05;7.03;;;;;;;;;;5039575;28;20476;-76
2023/12/16 05:21:08;;;;;;;15.00;6.72;;;;;;;;;;5042979;28;20566;-75
2023/12/16 05:23:33;;;;;;;16.15;6.13;;;;;;;;;;5035806;28;20048;-75
2023/12/16 05:25:58;;;;;;;14.43;6.50;;;;;;;;;;5035326;28;20109;-75
2023/12/16 05:28:24;;;;;;;18.85;7.32;;;;;;;;;;5038327;28;20387;-77
2023/12/16 05:30:49;;;;;;;10.85;5.32;;;;;;;;;;5037937;28;20052;-75
2023/12/16 05:33:14;;;;;;;18.05;6.50;;;;;;;;;;5030937;28;20049;-75
2023/12/16 05:35:39;;;;;;;15.48;6.60;;;;;;;;;;5036164;28;20136;-75
2023/12/16 05:38:04;;;;;;;14.32;6.35;;;;;;;;;;5039056;28;20079;-75
2023/12/16 05:40:29;;;;;;;18.48;6.10;;;;;;;;;;5039859;28;20460;-75
2023/12/16 05:42:55;;;;;;;14.70;5.53;;;;;;;;;;5035729;28;20037;-75
2023/12/16 05:45:20;;;;;;;13.73;6.60;;;;;;;;;;5041029;28;20087;-75
2023/12/16 05:47:45;;;;;;;12.15;5.97;;;;;;;;;;5039333;28;20124;-75
2023/12/16 05:50:10;;;;;;;15.82;6.32;;;;;;;;;;5040798;28;20034;-75
2023/12/16 05:52:37;;;;;;;14.48;5.95;;;;;;;;;;5032998;28;20063;-77
2023/12/16 05:55:02;;;;;;;13.27;5.85;;;;;;;;;;5034910;28;20044;-76
2023/12/16 05:57:27;;;;;;;15.82;6.10;;;;;;;;;;5034714;28;20037;-75
2023/12/16 05:59:52;;;;;;;17.48;5.82;;;;;;;;;;5037252;28;20025;-76
2023/12/16 06:02:17;;;;;;;17.10;6.50;;;;;;;;;;5058048;28;20040;-75
2023/12/16 06:04:43;;;;;;;13.27;6.00;;;;;;;;;;5032488;28;20039;-75
2023/12/16 06:07:08;;;;;;;14.18;5.82;;;;;;;;;;5032999;28;20041;-75
2023/12/16 06:09:33;;;;;;;12.60;5.80;;;;;;;;;;5052890;28;20121;-76
2023/12/16 06:11:58;;;;;;;15.38;5.85;;;;;;;;;;5035320;28;20043;-75
2023/12/16 06:14:24;;;;;;;12.32;5.28;;;;;;;;;;5040412;28;20436;-75
2023/12/16 06:16:49;;;;;;;11.02;5.22;;;;;;;;;;5039479;28;20091;-76
2023/12/16 06:19:14;;;;;;;16.67;5.97;;;;;;;;;;5033089;28;20033;-75
2023/12/16 06:21:39;;;;;;;21.02;6.72;;;;;;;;;;5035590;28;20029;-76
2023/12/16 06:24:05;;;;;;;15.73;5.68;;;;;;;;;;5032063;28;20033;-75
2023/12/16 06:26:31;;;;;;;16.13;6.18;;;;;;;;;;5038030;28;20037;-75
2023/12/16 06:28:56;;;;;;;13.50;5.35;;;;;;;;;;5036252;28;20043;-76
2023/12/16 06:31:21;;;;;;;16.33;6.47;;;;;;;;;;5039789;28;20121;-76
2023/12/16 06:33:46;;;;;;;11.63;5.93;;;;;;;;;;5030405;28;20091;-76
2023/12/16 06:36:11;;;;;;;16.15;6.70;;;;;;;;;;5029977;28;20453;-75
2023/12/16 06:38:37;;;;;;;15.98;5.55;;;;;;;;;;5037058;28;20036;-75
2023/12/16 06:41:02;;;;;;;13.55;5.78;;;;;;;;;;5037527;28;20108;-75
2023/12/16 06:43:27;;;;;;;15.77;6.10;;;;;;;;;;5036536;28;20025;-75
2023/12/16 06:45:54;;;;;;;10.80;5.57;;;;;;;;;;5036781;28;20029;-79
2023/12/16 06:48:19;;;;;;;13.15;6.05;;;;;;;;;;5051431;28;20490;-76
2023/12/16 06:50:45;;;;;;;14.23;6.13;;;;;;;;;;5037708;28;20048;-76
2023/12/16 06:53:11;;;;;;;12.25;6.30;;;;;;;;;;5038133;28;20033;-76
2023/12/16 06:55:36;;;;;;;16.83;6.45;;;;;;;;;;5057576;28;20059;-76
2023/12/16 06:58:02;;;;;;;16.75;5.68;;;;;;;;;;5036816;28;20030;-76
2023/12/16 07:00:27;;;;;;;13.88;5.57;;;;;;;;;;5035290;28;20033;-76
2023/12/16 07:02:52;;;;;;;14.68;5.85;;;;;;;;;;5031393;28;20022;-76
2023/12/16 07:05:17;;;;;;;18.55;5.85;;;;;;;;;;5035339;28;20030;-76
2023/12/16 07:07:42;;;;;;;12.80;5.10;;;;;;;;;;5038232;28;20508;-76
2023/12/16 07:10:08;;;;;;;14.60;6.25;;;;;;;;;;5038236;28;20033;-75
2023/12/16 07:12:33;;;;;;;17.27;5.93;;;;;;;;;;5038674;28;20037;-76
2023/12/16 07:14:58;;;;;;;15.80;5.93;;;;;;;;;;5034207;28;20029;-75
2023/12/16 07:17:24;;;;;;;12.55;5.35;;;;;;;;;;5036316;28;20036;-75
2023/12/16 07:19:49;;;;;;;18.30;5.93;;;;;;;;;;5037205;28;20033;-76
2023/12/16 07:22:16;;;;;;;22.48;6.72;;;;;;;;;;5036425;28;20043;-76
2023/12/16 07:24:41;;;;;;;17.38;5.80;;;;;;;;;;5037734;28;20056;-75
2023/12/16 07:27:06;;;;;;;16.70;6.75;;;;;;;;;;5038230;28;20490;-75
2023/12/16 07:29:34;;;;;;;13.00;5.50;;;;;;;;;;5033081;28;20029;-76
2023/12/16 07:32:00;;;;;;;12.52;5.88;;;;;;;;;;5036876;28;20026;-76
2023/12/16 07:34:25;;;;;;;11.88;6.20;;;;;;;;;;5034615;28;20025;-76
2023/12/16 07:36:51;;;;;;;13.13;5.40;;;;;;;;;;5026967;28;20140;-75
2023/12/16 07:39:16;;;;;;;14.82;6.47;;;;;;;;;;5031409;28;20036;-76
2023/12/16 07:41:41;;;;;;;19.52;6.15;;;;;;;;;;5030213;28;20076;-76
2023/12/16 07:44:06;;;;;;;17.80;6.35;;;;;;;;;;5028115;28;20051;-76
2023/12/16 07:46:31;;;;;;;19.02;5.85;;;;;;;;;;5032248;28;20025;-75
2023/12/16 07:48:56;;;;;;;12.13;5.07;;;;;;;;;;5032970;28;20037;-76
2023/12/16 07:51:25;;;;;;;9.82;5.55;;;;;;;;;;5032653;28;20111;-76
2023/12/16 07:53:50;;;;;;;13.82;5.40;;;;;;;;;;5030962;28;20104;-76
2023/12/16 07:56:16;;;;;;;12.45;5.30;;;;;;;;;;5035822;28;20117;-75
2023/12/16 07:58:41;;;;;;;12.27;5.28;;;;;;;;;;5045078;28;20033;-76
2023/12/16 08:01:07;;;;;;;11.23;5.18;;;;;;;;;;5038118;28;20107;-76
2023/12/16 08:03:32;;;;;;;14.20;6.28;;;;;;;;;;5039549;28;20035;-76
2023/12/16 08:05:57;;;;;;;11.10;5.72;;;;;;;;;;5043654;28;20108;-77
2023/12/16 08:08:23;;;;;;;15.77;5.75;;;;;;;;;;5043984;28;20443;-75
2023/12/16 08:10:52;;;;;;;12.75;6.00;;;;;;;;;;5041594;28;20030;-75
2023/12/16 08:13:17;;;;;;;15.85;6.45;;;;;;;;;;5038872;28;20035;-76
2023/12/16 08:15:43;;;;;;;15.45;5.85;;;;;;;;;;5042197;28;20108;-76
2023/12/16 08:18:09;;;;;;;15.60;5.68;;;;;;;;;;5041256;28;20033;-76
2023/12/16 08:20:34;;;;;;;15.38;6.32;;;;;;;;;;5046030;28;20026;-76
2023/12/16 08:23:02;;;;;;;18.33;5.93;;;;;;;;;;5041949;28;20072;-76
2023/12/16 08:25:27;;;;;;;17.73;6.05;;;;;;;;;;5059638;28;20048;-76
2023/12/16 08:27:52;;;;;;;11.13;5.30;;;;;;;;;;5039406;28;20532;-76
2023/12/16 08:30:18;;;;;;;17.23;6.13;;;;;;;;;;5046916;28;20405;-76
2023/12/16 08:32:43;;;;;;;17.33;5.97;;;;;;;;;;5044536;28;20133;-76
2023/12/16 08:35:08;;;;;;;13.68;6.00;;;;;;;;;;5045790;28;20029;-76
2023/12/16 08:37:34;;;;;;;10.60;5.30;;;;;;;;;;5034385;28;20026;-76
2023/12/16 08:39:59;;;;;;;11.88;6.50;;;;;;;;;;5040796;28;20032;-76
2023/12/16 08:42:24;;;;;;;13.38;6.82;;;;;;;;;;5042349;28;20032;-76
2023/12/16 08:44:49;;;;;;;12.30;5.65;;;;;;;;;;5037656;28;20021;-76
2023/12/16 08:47:14;;;;;;;12.93;4.85;;;;;;;;;;5044434;28;20075;-77
2023/12/16 08:49:42;;;;;;;13.55;5.43;;;;;;;;;;5051691;28;20026;-76
2023/12/16 08:52:08;;;;;;;13.23;6.28;;;;;;;;;;5037867;28;20035;-79
2023/12/16 08:54:33;;;;;;;17.20;5.35;;;;;;;;;;5039423;28;20033;-77
2023/12/16 08:57:01;;;;;;;12.38;5.28;;;;;;;;;;5037286;28;20025;-77
2023/12/16 08:59:26;;;;;;;14.85;6.00;;;;;;;;;;5046101;28;20079;-78
2023/12/16 09:01:51;;;;;;;13.95;5.30;;;;;;;;;;5029088;28;20029;-77
2023/12/16 09:04:17;;;;;;;11.70;5.15;;;;;;;;;;5041549;28;20029;-77
2023/12/16 09:06:43;;;;;;;13.93;5.35;;;;;;;;;;5040618;28;20039;-77
2023/12/16 09:09:09;;;;;;;12.63;6.07;;;;;;;;;;5036557;28;20033;-77
2023/12/16 09:11:34;;;;;;;13.20;5.70;;;;;;;;;;5043369;28;20037;-77
2023/12/16 09:13:59;;;;;;;13.77;5.43;;;;;;;;;;5034767;28;20072;-79
2023/12/16 09:16:24;;;;;;;18.75;5.78;;;;;;;;;;5044916;28;20048;-78
2023/12/16 09:18:50;;;;;;;12.63;5.70;;;;;;;;;;5053950;28;20405;-79
2023/12/16 09:21:15;;;;;;;16.33;5.25;;;;;;;;;;5035685;28;20030;-79
2023/12/16 09:23:40;;;;;;;16.50;5.55;;;;;;;;;;5039128;28;20500;-78
2023/12/16 09:26:05;;;;;;;15.77;5.90;;;;;;;;;;5037927;28;20026;-78
2023/12/16 09:28:30;;;;;;;13.68;5.95;;;;;;;;;;5041099;28;20033;-77
2023/12/16 09:30:55;;;;;;;14.27;5.88;;;;;;;;;;5041756;28;20044;-79
2023/12/16 09:33:21;;;;;;;12.70;5.60;;;;;;;;;;5042195;28;20029;-79
2023/12/16 09:35:47;;;;;;;12.73;5.43;;;;;;;;;;5035984;28;20025;-80
2023/12/16 09:38:12;;;;;;;16.10;5.82;;;;;;;;;;5037229;28;20030;-79
2023/12/16 09:40:39;;;;;;;11.95;5.25;;;;;;;;;;5042169;28;20062;-81
2023/12/16 09:43:14;;;;;;;14.60;5.95;;;;;;;;;;5058810;28;20044;-80
2023/12/16 09:45:39;;;;;;;12.63;5.20;;;;;;;;;;5047564;28;20021;-80
2023/12/16 09:48:04;;;;;;;15.88;6.00;;;;;;;;;;5040721;28;20045;-80
2023/12/16 09:50:30;;;;;;;14.38;5.60;;;;;;;;;;5043423;28;20601;-80
2023/12/16 09:52:56;;;;;;;14.50;5.50;;;;;;;;;;5041817;28;20025;-80
2023/12/16 09:55:21;;;;;;;14.60;5.80;;;;;;;;;;5042241;28;20482;-80
2023/12/16 09:57:47;;;;;;;20.80;6.35;;;;;;;;;;5037848;28;20041;-80
2023/12/16 10:00:13;;;;;;;22.00;6.57;;;;;;;;;;5041056;28;20058;-80
2023/12/16 10:02:38;;;;;;;13.43;5.28;;;;;;;;;;5035415;28;20080;-79
2023/12/16 10:05:04;;;;;;;13.00;5.68;;;;;;;;;;5037350;28;20021;-80
2023/12/16 10:07:29;;;;;;;14.98;5.75;;;;;;;;;;5040088;28;20128;-80
2023/12/16 10:09:55;;;;;;;15.68;6.28;;;;;;;;;;5040525;28;20076;-78
2023/12/16 10:12:20;;;;;;;14.15;6.28;;;;;;;;;;5043241;28;20047;-80
2023/12/16 10:14:46;;;;;;;12.15;5.28;;;;;;;;;;5031353;28;20033;-81
2023/12/16 10:17:12;;;;;;;14.20;5.78;;;;;;;;;;5042121;28;20454;-80
2023/12/16 10:19:37;;;;;;;30.52;6.93;;;;;;;;;;5038050;28;20028;-80
2023/12/16 10:22:02;;;;;;;15.82;5.70;;;;;;;;;;5051401;28;20114;-80
2023/12/16 10:24:27;;;;;;;12.15;5.85;;;;;;;;;;5043450;28;20029;-79
2023/12/16 10:26:53;;;;;;;13.32;5.82;;;;;;;;;;5041626;28;20027;-80
2023/12/16 10:29:19;;;;;;;11.32;5.45;;;;;;;;;;5035209;28;20071;-80
2023/12/16 10:31:44;;;;;;;15.10;5.68;;;;;;;;;;5045907;28;20040;-79
2023/12/16 10:34:10;;;;;;;14.23;7.20;;;;;;;;;;5032407;28;20410;-80
2023/12/16 10:36:36;;;;;;;11.93;6.05;;;;;;;;;;5040348;28;20516;-79
2023/12/16 10:39:01;;;;;;;14.98;5.60;;;;;;;;;;5035766;28;20033;-80
2023/12/16 10:41:27;;;;;;;12.95;5.85;;;;;;;;;;5032345;28;20033;-79
2023/12/16 10:43:52;;;;;;;10.45;4.38;;;;;;;;;;5034035;28;20083;-80
2023/12/16 10:46:19;;;;;;;16.23;6.05;;;;;;;;;;5036092;28;20026;-80
2023/12/16 10:48:46;;;;;;;11.40;5.35;;;;;;;;;;5038303;28;20509;-79
2023/12/16 10:51:14;;;;;;;10.63;4.60;;;;;;;;;;5033990;28;20029;-79
2023/12/16 10:53:45;;;;;;;12.77;4.75;;;;;;;;;;5057391;28;20033;-79
2023/12/16 10:56:13;;;;;;;12.75;4.47;;;;;;;;;;5037135;28;20524;-80
2023/12/16 10:58:43;;;;;;;12.73;4.95;;;;;;;;;;5035055;28;20046;-81
2023/12/16 11:01:13;;;;;;;12.73;4.25;;;;;;;;;;5037575;28;20033;-80
2023/12/16 11:03:45;;;;;;;18.42;4.95;;;;;;;;;;5036449;28;20095;-81
2023/12/16 11:06:13;;;;;;;12.50;5.00;;;;;;;;;;5045094;28;20544;-80
2023/12/16 11:08:39;;;;;;;12.23;5.22;;;;;;;;;;5037465;28;20338;-80
2023/12/16 11:11:04;;;;;;;11.02;3.78;;;;;;;;;;5043247;28;20498;-81
2023/12/16 11:13:29;;;;;;;10.82;4.32;;;;;;;;;;5041590;28;20034;-83
2023/12/16 11:15:57;;;;;;;14.50;4.28;;;;;;;;;;5035342;28;20037;-81
2023/12/16 11:18:26;;;;;;;11.13;3.78;;;;;;;;;;5055291;28;20037;-80
2023/12/16 11:20:54;;;;;;;14.15;4.43;;;;;;;;;;5043524;28;20059;-80
2023/12/16 11:23:19;;;;;;;12.82;3.70;;;;;;;;;;5037944;28;20105;-81
2023/12/16 11:25:45;;;;;;;9.98;3.45;;;;;;;;;;5022021;28;20116;-80
2023/12/16 11:28:13;;;;;;;10.55;3.80;;;;;;;;;;5029328;28;20040;-80
2023/12/16 11:30:39;;;;;;;11.23;3.60;;;;;;;;;;5037646;28;20029;-81
2023/12/16 11:33:04;;;;;;;11.80;3.88;;;;;;;;;;5039418;28;20433;-80
2023/12/16 11:35:39;;;;;;;11.43;3.20;;;;;;;;;;5023758;28;20030;-82
2023/12/16 11:38:05;;;;;;;9.57;3.42;;;;;;;;;;5050109;28;20033;-80
2023/12/16 11:40:52;;;;;;;12.65;3.42;;;;;;;;;;5039815;28;20086;-81
2023/12/16 11:43:18;;;;;;;11.43;3.72;;;;;;;;;;5034323;28;20452;-81
2023/12/16 11:45:44;;;;;;;12.02;3.53;;;;;;;;;;5038742;28;20033;-81
2023/12/16 11:48:15;;;;;;;15.07;3.60;;;;;;;;;;5043636;28;20429;-81
2023/12/16 11:50:42;;;;;;;15.48;4.47;;;;;;;;;;5044075;28;20036;-80
2023/12/16 11:53:11;;;;;;;9.77;3.63;;;;;;;;;;5039941;28;20042;-80
2023/12/16 11:55:36;;;;;;;9.32;3.05;;;;;;;;;;5041521;28;20037;-81
2023/12/16 11:58:02;;;;;;;9.82;3.30;;;;;;;;;;5040860;28;20112;-81
2023/12/16 12:00:27;;;;;;;10.02;2.97;;;;;;;;;;5041699;28;20056;-81
2023/12/16 12:02:54;;;;;;;7.60;2.90;;;;;;;;;;5056308;28;20410;-81
2023/12/16 12:05:19;;;;;;;12.35;4.15;;;;;;;;;;5037129;28;20222;-79
2023/12/16 12:07:44;;;;;;;12.30;3.53;;;;;;;;;;5039922;28;20361;-79
2023/12/16 12:10:10;;;;;;;11.32;3.58;;;;;;;;;;5027171;28;20039;-80
2023/12/16 12:12:35;;;;;;;7.60;2.67;;;;;;;;;;5042706;28;20033;-80
2023/12/16 12:15:00;;;;;;;9.63;3.60;;;;;;;;;;5042370;28;20029;-80
2023/12/16 12:17:28;;;;;;;14.90;3.92;;;;;;;;;;5043408;28;20037;-80
2023/12/16 12:19:53;;;;;;;10.55;2.42;;;;;;;;;;5036067;28;20029;-80
2023/12/16 12:22:19;;;;;;;12.32;3.28;;;;;;;;;;5045132;28;20035;-81
2023/12/16 12:24:44;;;;;;;9.95;3.22;;;;;;;;;;5056604;28;20032;-81
2023/12/16 12:27:09;;;;;;;10.57;2.97;;;;;;;;;;5046711;28;20033;-80
2023/12/16 12:29:53;;;;;;;10.60;3.15;;;;;;;;;;5037855;28;20464;-81
2023/12/16 12:32:19;;;;;;;10.80;3.15;;;;;;;;;;5054626;28;20387;-81
2023/12/16 12:34:44;;;;;;;8.23;2.55;;;;;;;;;;5027731;28;20044;-80
2023/12/16 12:37:09;;;;;;;10.90;2.80;;;;;;;;;;5032330;28;20025;-80
2023/12/16 12:39:34;;;;;;;14.38;3.03;;;;;;;;;;5042523;28;20120;-80
2023/12/16 12:42:00;;;;;;;9.88;2.70;;;;;;;;;;5039747;28;20029;-80
2023/12/16 12:44:26;;;;;;;11.80;3.70;;;;;;;;;;5054200;28;20044;-80
2023/12/16 12:46:51;;;;;;;9.45;3.20;;;;;;;;;;5027895;28;20041;-80
2023/12/16 12:49:17;;;;;;;12.25;3.30;;;;;;;;;;5045308;28;20428;-80
2023/12/16 12:51:49;;;;;;;14.73;3.85;;;;;;;;;;5037102;28;20024;-80
2023/12/16 12:54:15;;;;;;;9.38;2.90;;;;;;;;;;5033254;28;20116;-79
2023/12/16 12:56:40;;;;;;;10.20;3.00;;;;;;;;;;5033789;28;20113;-79
2023/12/16 12:59:05;;;;;;;9.98;2.90;;;;;;;;;;5041427;28;20037;-80
2023/12/16 13:01:30;;;;;;;11.35;3.00;;;;;;;;;;5036597;28;20166;-80
2023/12/16 13:03:55;;;;;;;12.90;3.38;;;;;;;;;;5032758;28;20061;-80
2023/12/16 13:06:21;;;;;;;11.48;2.83;;;;;;;;;;5038825;28;20033;-76
2023/12/16 13:08:46;;;;;;;11.82;3.90;;;;;;;;;;5038741;28;20068;-78
2023/12/16 13:11:11;;;;;;;10.27;3.15;;;;;;;;;;5042028;28;20116;-76
2023/12/16 13:13:36;;;;;;;9.50;3.33;;;;;;;;;;5059940;28;20090;-78
2023/12/16 13:16:02;;;;;;;14.40;3.15;;;;;;;;;;5035682;28;20126;-78
2023/12/16 13:18:27;;;;;;;12.27;2.90;;;;;;;;;;5037241;28;20068;-77
2023/12/16 13:20:52;;;;;;;11.55;2.85;;;;;;;;;;5039066;28;20029;-77
2023/12/16 13:23:19;;;;;;;10.38;3.40;;;;;;;;;;5039631;28;20048;-78
2023/12/16 13:25:44;;;;;;;10.95;3.33;;;;;;;;;;5040880;28;20108;-77
2023/12/16 13:28:09;;;;;;;10.40;3.40;;;;;;;;;;5041370;28;20176;-77
2023/12/16 13:30:35;;;;;;;13.35;3.50;;;;;;;;;;5036288;28;20055;-77
2023/12/16 13:33:00;;;;;;;9.85;2.53;;;;;;;;;;5036951;28;20099;-77
2023/12/16 13:35:25;;;;;;;6.50;2.20;;;;;;;;;;5038101;28;20041;-77
2023/12/16 13:37:50;;;;;;;10.55;2.88;;;;;;;;;;5039247;28;20052;-77
2023/12/16 13:40:16;;;;;;;13.82;3.60;;;;;;;;;;5041861;28;20033;-77
2023/12/16 13:42:41;;;;;;;11.05;2.97;;;;;;;;;;5039806;28;20022;-77
2023/12/16 13:45:07;;;;;;;11.80;3.00;;;;;;;;;;5035812;28;20033;-77
2023/12/16 13:47:32;;;;;;;15.88;3.55;;;;;;;;;;5037851;28;20068;-77
2023/12/16 13:49:57;;;;;;;9.90;3.47;;;;;;;;;;5038619;28;20144;-77
2023/12/16 13:52:22;;;;;;;12.38;3.75;;;;;;;;;;5041236;28;20030;-77
2023/12/16 13:54:48;;;;;;;10.27;3.17;;;;;;;;;;5039251;28;20037;-76
2023/12/16 13:57:13;;;;;;;14.60;2.78;;;;;;;;;;5032013;28;20045;-77
2023/12/16 13:59:39;;;;;;;11.02;2.80;;;;;;;;;;5035234;28;20072;-77
2023/12/16 14:02:04;;;;;;;7.72;2.53;;;;;;;;;;5039358;28;20111;-76
2023/12/16 14:04:29;;;;;;;10.73;2.35;;;;;;;;;;5036797;28;20026;-77
2023/12/16 14:06:54;;;;;;;12.88;3.08;;;;;;;;;;5046707;28;20043;-76
2023/12/16 14:09:19;;;;;;;9.77;2.80;;;;;;;;;;5041751;28;20040;-77
2023/12/16 14:11:45;;;;;;;14.15;2.85;;;;;;;;;;5037919;28;20049;-77
2023/12/16 14:14:10;;;;;;;10.55;2.75;;;;;;;;;;5038150;28;20041;-76
2023/12/16 14:16:35;;;;;;;8.80;2.30;;;;;;;;;;5036998;28;20057;-77
2023/12/16 14:19:01;;;;;;;8.48;2.47;;;;;;;;;;5044908;28;20554;-77